sensor_id;sensor_type;location;lat;lon;timestamp;pressure;altitude;pressure_sealevel;temperature;humidity
52625;BME280;38519;52.540;13.410;2023-05-13T00:02:12;101086.41;;;14.23;95.63
52625;BME280;38519;52.540;13.410;2023-05-13T00:04:38;101080.16;;;14.21;95.43
52625;BME280;38519;52.540;13.410;2023-05-13T00:07:03;101084.78;;;14.25;95.09
52625;BME280;38519;52.540;13.410;2023-05-13T00:09:30;101085.03;;;14.15;95.73
52625;BME280;38519;52.540;13.410;2023-05-13T00:11:56;101083.19;;;14.14;95.90
52625;BME280;38519;52.540;13.410;2023-05-13T00:14:21;101077.66;;;14.09;95.68
52625;BME280;38519;52.540;13.410;2023-05-13T00:16:47;101087.25;;;14.09;95.93
52625;BME280;38519;52.540;13.410;2023-05-13T00:19:13;101075.84;;;14.08;95.98
52625;BME280;38519;52.540;13.410;2023-05-13T00:21:38;101084.94;;;14.00;96.31
52625;BME280;38519;52.540;13.410;2023-05-13T00:24:05;101085.25;;;13.91;96.47
52625;BME280;38519;52.540;13.410;2023-05-13T00:26:31;101089.59;;;13.91;96.51
52625;BME280;38519;52.540;13.410;2023-05-13T00:28:56;101087.66;;;13.88;97.01
52625;BME280;38519;52.540;13.410;2023-05-13T00:31:22;101093.53;;;13.84;96.86
52625;BME280;38519;52.540;13.410;2023-05-13T00:33:47;101086.78;;;13.88;96.95
52625;BME280;38519;52.540;13.410;2023-05-13T00:36:20;101097.47;;;13.91;96.83
52625;BME280;38519;52.540;13.410;2023-05-13T00:38:47;101101.41;;;13.84;96.91
52625;BME280;38519;52.540;13.410;2023-05-13T00:41:13;101094.13;;;13.80;97.38
52625;BME280;38519;52.540;13.410;2023-05-13T00:43:39;101096.75;;;13.80;97.12
52625;BME280;38519;52.540;13.410;2023-05-13T00:46:04;101102.09;;;13.81;97.07
52625;BME280;38519;52.540;13.410;2023-05-13T00:48:31;101105.56;;;13.80;97.29
52625;BME280;38519;52.540;13.410;2023-05-13T00:50:57;101100.09;;;13.77;97.03
52625;BME280;38519;52.540;13.410;2023-05-13T00:53:23;101110.72;;;13.79;97.20
52625;BME280;38519;52.540;13.410;2023-05-13T00:55:49;101102.09;;;13.81;97.66
52625;BME280;38519;52.540;13.410;2023-05-13T00:58:14;101099.47;;;13.81;97.33
52625;BME280;38519;52.540;13.410;2023-05-13T01:00:59;101101.00;;;13.78;97.34
52625;BME280;38519;52.540;13.410;2023-05-13T01:03:32;101105.72;;;13.83;97.28
52625;BME280;38519;52.540;13.410;2023-05-13T01:06:09;101107.25;;;13.80;97.38
52625;BME280;38519;52.540;13.410;2023-05-13T01:08:41;101107.25;;;13.80;97.55
52625;BME280;38519;52.540;13.410;2023-05-13T01:11:13;101115.53;;;13.73;97.95
52625;BME280;38519;52.540;13.410;2023-05-13T01:13:40;101114.13;;;13.78;97.73
52625;BME280;38519;52.540;13.410;2023-05-13T01:16:20;101118.75;;;13.69;97.87
52625;BME280;38519;52.540;13.410;2023-05-13T01:18:51;101112.09;;;13.60;98.49
52625;BME280;38519;52.540;13.410;2023-05-13T01:21:21;101126.53;;;13.54;98.58
52625;BME280;38519;52.540;13.410;2023-05-13T01:23:47;101121.97;;;13.51;99.05
52625;BME280;38519;52.540;13.410;2023-05-13T01:26:12;101124.69;;;13.53;98.56
52625;BME280;38519;52.540;13.410;2023-05-13T01:28:38;101125.63;;;13.53;98.97
52625;BME280;38519;52.540;13.410;2023-05-13T01:31:03;101133.19;;;13.48;98.96
52625;BME280;38519;52.540;13.410;2023-05-13T01:33:28;101138.22;;;13.45;98.97
52625;BME280;38519;52.540;13.410;2023-05-13T01:35:54;101135.91;;;13.50;98.96
52625;BME280;38519;52.540;13.410;2023-05-13T01:38:20;101134.75;;;13.46;98.82
52625;BME280;38519;52.540;13.410;2023-05-13T01:40:46;101139.63;;;13.40;99.21
52625;BME280;38519;52.540;13.410;2023-05-13T01:43:12;101143.03;;;13.39;99.08
52625;BME280;38519;52.540;13.410;2023-05-13T01:45:37;101134.06;;;13.36;99.55
52625;BME280;38519;52.540;13.410;2023-05-13T01:48:02;101143.84;;;13.38;99.20
52625;BME280;38519;52.540;13.410;2023-05-13T01:50:28;101143.63;;;13.35;99.14
52625;BME280;38519;52.540;13.410;2023-05-13T01:52:53;101140.34;;;13.26;99.83
52625;BME280;38519;52.540;13.410;2023-05-13T01:55:19;101140.47;;;13.27;99.57
52625;BME280;38519;52.540;13.410;2023-05-13T01:57:44;101133.16;;;13.23;99.65
52625;BME280;38519;52.540;13.410;2023-05-13T02:00:10;101136.81;;;13.25;100.00
52625;BME280;38519;52.540;13.410;2023-05-13T02:02:35;101131.44;;;13.24;99.54
52625;BME280;38519;52.540;13.410;2023-05-13T02:05:01;101136.13;;;13.28;99.51
52625;BME280;38519;52.540;13.410;2023-05-13T02:07:26;101136.69;;;13.24;100.00
52625;BME280;38519;52.540;13.410;2023-05-13T02:09:51;101142.44;;;13.18;99.88
52625;BME280;38519;52.540;13.410;2023-05-13T02:12:23;101141.69;;;13.07;100.00
52625;BME280;38519;52.540;13.410;2023-05-13T02:14:49;101140.47;;;13.02;100.00
52625;BME280;38519;52.540;13.410;2023-05-13T02:17:14;101139.25;;;12.97;100.00
52625;BME280;38519;52.540;13.410;2023-05-13T02:19:39;101146.16;;;12.97;100.00
52625;BME280;38519;52.540;13.410;2023-05-13T02:22:04;101140.50;;;12.90;100.00
52625;BME280;38519;52.540;13.410;2023-05-13T02:24:31;101137.09;;;12.91;100.00
52625;BME280;38519;52.540;13.410;2023-05-13T02:26:56;101144.94;;;12.91;100.00
52625;BME280;38519;52.540;13.410;2023-05-13T02:29:22;101145.22;;;12.83;100.00
52625;BME280;38519;52.540;13.410;2023-05-13T02:31:47;101144.84;;;12.90;100.00
52625;BME280;38519;52.540;13.410;2023-05-13T02:34:12;101142.72;;;12.84;100.00
52625;BME280;38519;52.540;13.410;2023-05-13T02:36:37;101134.88;;;12.72;100.00
52625;BME280;38519;52.540;13.410;2023-05-13T02:39:03;101141.94;;;12.73;100.00
52625;BME280;38519;52.540;13.410;2023-05-13T02:41:28;101146.28;;;12.73;100.00
52625;BME280;38519;52.540;13.410;2023-05-13T02:43:53;101142.38;;;12.80;100.00
52625;BME280;38519;52.540;13.410;2023-05-13T02:46:18;101144.91;;;12.78;100.00
52625;BME280;38519;52.540;13.410;2023-05-13T02:48:44;101146.00;;;12.82;100.00
52625;BME280;38519;52.540;13.410;2023-05-13T02:51:09;101152.03;;;12.81;100.00
52625;BME280;38519;52.540;13.410;2023-05-13T02:53:35;101145.22;;;12.83;100.00
52625;BME280;38519;52.540;13.410;2023-05-13T02:56:00;101137.81;;;12.89;100.00
52625;BME280;38519;52.540;13.410;2023-05-13T02:58:25;101146.88;;;12.94;100.00
52625;BME280;38519;52.540;13.410;2023-05-13T03:00:50;101145.84;;;12.92;100.00
52625;BME280;38519;52.540;13.410;2023-05-13T03:03:16;101151.41;;;12.97;100.00
52625;BME280;38519;52.540;13.410;2023-05-13T03:05:41;101155.53;;;12.93;100.00
52625;BME280;38519;52.540;13.410;2023-05-13T03:08:06;101153.59;;;12.90;100.00
52625;BME280;38519;52.540;13.410;2023-05-13T03:10:31;101157.50;;;12.84;100.00
52625;BME280;38519;52.540;13.410;2023-05-13T03:12:57;101156.81;;;12.86;99.95
52625;BME280;38519;52.540;13.410;2023-05-13T03:15:22;101153.88;;;12.82;100.00
52625;BME280;38519;52.540;13.410;2023-05-13T03:17:48;101162.22;;;12.76;100.00
52625;BME280;38519;52.540;13.410;2023-05-13T03:20:13;101163.81;;;12.74;100.00
52625;BME280;38519;52.540;13.410;2023-05-13T03:22:39;101156.66;;;12.71;100.00
52625;BME280;38519;52.540;13.410;2023-05-13T03:25:04;101163.47;;;12.69;100.00
52625;BME280;38519;52.540;13.410;2023-05-13T03:27:30;101168.72;;;12.69;100.00
52625;BME280;38519;52.540;13.410;2023-05-13T03:29:55;101163.41;;;12.56;100.00
52625;BME280;38519;52.540;13.410;2023-05-13T03:32:20;101165.69;;;12.51;100.00
52625;BME280;38519;52.540;13.410;2023-05-13T03:34:46;101165.81;;;12.53;100.00
52625;BME280;38519;52.540;13.410;2023-05-13T03:37:12;101165.13;;;12.44;100.00
52625;BME280;38519;52.540;13.410;2023-05-13T03:39:37;101168.47;;;12.41;100.00
52625;BME280;38519;52.540;13.410;2023-05-13T03:42:02;101166.50;;;12.38;100.00
52625;BME280;38519;52.540;13.410;2023-05-13T03:44:27;101164.69;;;12.37;100.00
52625;BME280;38519;52.540;13.410;2023-05-13T03:46:53;101167.88;;;12.33;100.00
52625;BME280;38519;52.540;13.410;2023-05-13T03:49:18;101165.50;;;12.36;100.00
52625;BME280;38519;52.540;13.410;2023-05-13T03:51:43;101166.28;;;12.35;100.00
52625;BME280;38519;52.540;13.410;2023-05-13T03:54:09;101168.13;;;12.36;100.00
52625;BME280;38519;52.540;13.410;2023-05-13T03:56:35;101173.91;;;12.32;100.00
52625;BME280;38519;52.540;13.410;2023-05-13T03:59:00;101171.53;;;12.35;100.00
52625;BME280;38519;52.540;13.410;2023-05-13T04:01:25;101182.59;;;12.31;100.00
52625;BME280;38519;52.540;13.410;2023-05-13T04:03:50;101184.84;;;12.38;100.00
52625;BME280;38519;52.540;13.410;2023-05-13T04:06:16;101184.50;;;12.34;100.00
52625;BME280;38519;52.540;13.410;2023-05-13T04:08:41;101191.22;;;12.30;100.00
52625;BME280;38519;52.540;13.410;2023-05-13T04:11:07;101187.13;;;12.34;100.00
52625;BME280;38519;52.540;13.410;2023-05-13T04:13:33;101198.72;;;12.37;100.00
52625;BME280;38519;52.540;13.410;2023-05-13T04:15:58;101198.31;;;12.31;100.00
52625;BME280;38519;52.540;13.410;2023-05-13T04:18:23;101199.97;;;12.31;100.00
52625;BME280;38519;52.540;13.410;2023-05-13T04:20:49;101202.50;;;12.29;100.00
52625;BME280;38519;52.540;13.410;2023-05-13T04:23:14;101201.72;;;12.30;100.00
52625;BME280;38519;52.540;13.410;2023-05-13T04:25:39;101206.28;;;12.33;100.00
52625;BME280;38519;52.540;13.410;2023-05-13T04:28:05;101207.84;;;12.31;100.00
52625;BME280;38519;52.540;13.410;2023-05-13T04:30:31;101210.81;;;12.35;100.00
52625;BME280;38519;52.540;13.410;2023-05-13T04:32:56;101215.03;;;12.33;100.00
52625;BME280;38519;52.540;13.410;2023-05-13T04:35:21;101221.06;;;12.32;100.00
52625;BME280;38519;52.540;13.410;2023-05-13T04:37:46;101224.72;;;12.34;100.00
52625;BME280;38519;52.540;13.410;2023-05-13T04:40:13;101218.78;;;12.37;100.00
52625;BME280;38519;52.540;13.410;2023-05-13T04:42:39;101219.13;;;12.42;100.00
52625;BME280;38519;52.540;13.410;2023-05-13T04:45:04;101218.34;;;12.43;100.00
52625;BME280;38519;52.540;13.410;2023-05-13T04:47:30;101227.88;;;12.42;100.00
52625;BME280;38519;52.540;13.410;2023-05-13T04:49:59;101229.25;;;12.49;100.00
52625;BME280;38519;52.540;13.410;2023-05-13T04:52:24;101230.38;;;12.52;100.00
52625;BME280;38519;52.540;13.410;2023-05-13T04:54:49;101225.38;;;12.55;100.00
52625;BME280;38519;52.540;13.410;2023-05-13T04:57:14;101233.34;;;12.57;100.00
52625;BME280;38519;52.540;13.410;2023-05-13T04:59:40;101231.25;;;12.65;100.00
52625;BME280;38519;52.540;13.410;2023-05-13T05:02:05;101228.63;;;12.65;99.70
52625;BME280;38519;52.540;13.410;2023-05-13T05:04:30;101232.09;;;12.64;99.96
52625;BME280;38519;52.540;13.410;2023-05-13T05:06:55;101236.72;;;12.68;99.57
52625;BME280;38519;52.540;13.410;2023-05-13T05:09:20;101236.94;;;12.71;99.76
52625;BME280;38519;52.540;13.410;2023-05-13T05:11:46;101244.09;;;12.85;99.00
52625;BME280;38519;52.540;13.410;2023-05-13T05:14:14;101238.75;;;12.84;98.96
52625;BME280;38519;52.540;13.410;2023-05-13T05:16:39;101238.88;;;12.85;99.26
52625;BME280;38519;52.540;13.410;2023-05-13T05:19:04;101248.88;;;12.91;98.85
52625;BME280;38519;52.540;13.410;2023-05-13T05:21:29;101248.75;;;13.01;98.55
52625;BME280;38519;52.540;13.410;2023-05-13T05:23:55;101253.53;;;13.07;97.95
52625;BME280;38519;52.540;13.410;2023-05-13T05:26:21;101249.50;;;13.12;97.59
52625;BME280;38519;52.540;13.410;2023-05-13T05:28:46;101255.53;;;13.23;96.88
52625;BME280;38519;52.540;13.410;2023-05-13T05:31:11;101252.28;;;13.27;96.90
52625;BME280;38519;52.540;13.410;2023-05-13T05:33:37;101250.38;;;13.36;96.17
52625;BME280;38519;52.540;13.410;2023-05-13T05:36:02;101253.63;;;13.45;95.63
52625;BME280;38519;52.540;13.410;2023-05-13T05:38:28;101258.28;;;13.50;95.87
52625;BME280;38519;52.540;13.410;2023-05-13T05:40:53;101255.09;;;13.54;94.84
52625;BME280;38519;52.540;13.410;2023-05-13T05:43:18;101269.06;;;13.66;94.45
52625;BME280;38519;52.540;13.410;2023-05-13T05:45:44;101264.41;;;13.75;93.79
52625;BME280;38519;52.540;13.410;2023-05-13T05:48:09;101259.50;;;13.80;94.15
52625;BME280;38519;52.540;13.410;2023-05-13T05:50:34;101264.41;;;14.00;92.68
52625;BME280;38519;52.540;13.410;2023-05-13T05:53:00;101263.72;;;14.16;92.94
52625;BME280;38519;52.540;13.410;2023-05-13T05:55:26;101265.53;;;14.17;92.56
52625;BME280;38519;52.540;13.410;2023-05-13T05:57:55;101265.75;;;14.20;91.85
52625;BME280;38519;52.540;13.410;2023-05-13T06:00:21;101263.50;;;14.27;91.46
52625;BME280;38519;52.540;13.410;2023-05-13T06:02:46;101265.75;;;14.34;91.60
52625;BME280;38519;52.540;13.410;2023-05-13T06:05:13;101263.34;;;14.37;91.28
52625;BME280;38519;52.540;13.410;2023-05-13T06:07:38;101265.53;;;14.44;91.07
52625;BME280;38519;52.540;13.410;2023-05-13T06:10:03;101270.50;;;14.53;90.47
52625;BME280;38519;52.540;13.410;2023-05-13T06:12:29;101269.31;;;14.61;89.65
52625;BME280;38519;52.540;13.410;2023-05-13T06:14:54;101279.00;;;14.62;89.98
52625;BME280;38519;52.540;13.410;2023-05-13T06:17:19;101270.13;;;14.73;90.01
52625;BME280;38519;52.540;13.410;2023-05-13T06:19:45;101281.75;;;14.77;89.26
52625;BME280;38519;52.540;13.410;2023-05-13T06:22:10;101275.06;;;14.82;89.49
52625;BME280;38519;52.540;13.410;2023-05-13T06:24:35;101277.25;;;14.89;89.68
52625;BME280;38519;52.540;13.410;2023-05-13T06:27:01;101282.72;;;14.92;89.57
52625;BME280;38519;52.540;13.410;2023-05-13T06:29:26;101278.78;;;14.99;88.32
52625;BME280;38519;52.540;13.410;2023-05-13T06:31:52;101279.06;;;15.04;88.26
52625;BME280;38519;52.540;13.410;2023-05-13T06:34:17;101276.13;;;15.13;88.44
52625;BME280;38519;52.540;13.410;2023-05-13T06:36:42;101280.66;;;15.15;88.06
52625;BME280;38519;52.540;13.410;2023-05-13T06:39:08;101278.59;;;15.24;88.00
52625;BME280;38519;52.540;13.410;2023-05-13T06:41:34;101273.03;;;15.33;88.61
52625;BME280;38519;52.540;13.410;2023-05-13T06:44:00;101274.22;;;15.38;87.92
52625;BME280;38519;52.540;13.410;2023-05-13T06:46:25;101271.13;;;15.45;87.25
52625;BME280;38519;52.540;13.410;2023-05-13T06:48:50;101269.09;;;15.55;87.15
52625;BME280;38519;52.540;13.410;2023-05-13T06:51:17;101265.00;;;15.60;88.02
52625;BME280;38519;52.540;13.410;2023-05-13T06:53:42;101268.59;;;15.75;87.92
52625;BME280;38519;52.540;13.410;2023-05-13T06:56:08;101269.19;;;15.71;87.51
52625;BME280;38519;52.540;13.410;2023-05-13T06:58:33;101262.22;;;15.72;87.27
52625;BME280;38519;52.540;13.410;2023-05-13T07:00:58;101261.41;;;15.73;86.99
52625;BME280;38519;52.540;13.410;2023-05-13T07:03:23;101267.00;;;15.92;86.22
52625;BME280;38519;52.540;13.410;2023-05-13T07:05:48;101255.38;;;15.89;86.44
52625;BME280;38519;52.540;13.410;2023-05-13T07:08:14;101260.53;;;15.87;85.31
52625;BME280;38519;52.540;13.410;2023-05-13T07:10:41;101256.09;;;16.01;85.28
52625;BME280;38519;52.540;13.410;2023-05-13T07:13:07;101246.91;;;16.24;85.27
52625;BME280;38519;52.540;13.410;2023-05-13T07:15:32;101256.66;;;16.25;85.25
52625;BME280;38519;52.540;13.410;2023-05-13T07:17:57;101247.81;;;16.39;84.49
52625;BME280;38519;52.540;13.410;2023-05-13T07:20:24;101257.16;;;16.49;84.50
52625;BME280;38519;52.540;13.410;2023-05-13T07:22:50;101244.69;;;16.62;82.80
52625;BME280;38519;52.540;13.410;2023-05-13T07:25:16;101244.50;;;16.59;82.15
52625;BME280;38519;52.540;13.410;2023-05-13T07:27:41;101245.31;;;16.57;82.23
52625;BME280;38519;52.540;13.410;2023-05-13T07:30:06;101237.75;;;16.64;82.56
52625;BME280;38519;52.540;13.410;2023-05-13T07:32:32;101247.09;;;16.73;81.72
52625;BME280;38519;52.540;13.410;2023-05-13T07:34:59;101245.28;;;16.87;81.25
52625;BME280;38519;52.540;13.410;2023-05-13T07:37:24;101244.53;;;16.90;81.43
52625;BME280;38519;52.540;13.410;2023-05-13T07:39:49;101246.19;;;17.04;81.16
52625;BME280;38519;52.540;13.410;2023-05-13T07:42:14;101240.28;;;17.08;81.24
52625;BME280;38519;52.540;13.410;2023-05-13T07:44:40;101239.38;;;17.08;80.79
52625;BME280;38519;52.540;13.410;2023-05-13T07:47:06;101237.72;;;17.10;79.24
52625;BME280;38519;52.540;13.410;2023-05-13T07:49:31;101251.53;;;17.21;79.12
52625;BME280;38519;52.540;13.410;2023-05-13T07:51:56;101245.91;;;17.31;77.75
52625;BME280;38519;52.540;13.410;2023-05-13T07:54:22;101240.97;;;17.37;77.99
52625;BME280;38519;52.540;13.410;2023-05-13T07:56:48;101232.69;;;17.47;77.31
52625;BME280;38519;52.540;13.410;2023-05-13T07:59:13;101237.81;;;17.44;77.64
52625;BME280;38519;52.540;13.410;2023-05-13T08:01:38;101218.91;;;17.53;77.93
52625;BME280;38519;52.540;13.410;2023-05-13T08:04:04;101231.34;;;17.56;77.19
52625;BME280;38519;52.540;13.410;2023-05-13T08:06:29;101236.16;;;17.63;77.75
52625;BME280;38519;52.540;13.410;2023-05-13T08:08:56;101228.88;;;17.59;77.90
52625;BME280;38519;52.540;13.410;2023-05-13T08:11:21;101225.75;;;17.66;78.38
52625;BME280;38519;52.540;13.410;2023-05-13T08:13:47;101230.75;;;17.78;78.25
52625;BME280;38519;52.540;13.410;2023-05-13T08:16:12;101232.50;;;17.77;78.14
52625;BME280;38519;52.540;13.410;2023-05-13T08:18:37;101240.44;;;17.77;78.31
52625;BME280;38519;52.540;13.410;2023-05-13T08:21:03;101238.34;;;17.72;78.75
52625;BME280;38519;52.540;13.410;2023-05-13T08:23:28;101229.78;;;17.76;78.61
52625;BME280;38519;52.540;13.410;2023-05-13T08:25:53;101231.34;;;17.89;78.14
52625;BME280;38519;52.540;13.410;2023-05-13T08:28:18;101235.38;;;17.82;78.36
52625;BME280;38519;52.540;13.410;2023-05-13T08:30:43;101249.41;;;17.81;78.33
52625;BME280;38519;52.540;13.410;2023-05-13T08:33:09;101237.78;;;17.94;78.40
52625;BME280;38519;52.540;13.410;2023-05-13T08:35:35;101238.59;;;17.93;78.71
52625;BME280;38519;52.540;13.410;2023-05-13T08:38:00;101232.28;;;18.07;78.33
52625;BME280;38519;52.540;13.410;2023-05-13T08:40:29;101237.88;;;18.13;78.54
52625;BME280;38519;52.540;13.410;2023-05-13T08:42:54;101241.06;;;18.24;78.10
52625;BME280;38519;52.540;13.410;2023-05-13T08:45:21;101244.59;;;18.25;77.62
52625;BME280;38519;52.540;13.410;2023-05-13T08:47:51;101245.06;;;18.34;78.27
52625;BME280;38519;52.540;13.410;2023-05-13T08:50:19;101249.69;;;18.38;77.54
52625;BME280;38519;52.540;13.410;2023-05-13T08:52:46;101249.78;;;18.58;77.62
52625;BME280;38519;52.540;13.410;2023-05-13T08:55:11;101253.84;;;18.51;77.47
52625;BME280;38519;52.540;13.410;2023-05-13T08:57:37;101260.28;;;18.56;77.34
52625;BME280;38519;52.540;13.410;2023-05-13T09:00:02;101248.03;;;18.40;77.07
52625;BME280;38519;52.540;13.410;2023-05-13T09:02:29;101248.78;;;18.37;77.69
52625;BME280;38519;52.540;13.410;2023-05-13T09:04:54;101246.81;;;18.51;77.19
52625;BME280;38519;52.540;13.410;2023-05-13T09:07:21;101241.91;;;18.59;76.84
52625;BME280;38519;52.540;13.410;2023-05-13T09:09:46;101241.66;;;18.72;76.40
52625;BME280;38519;52.540;13.410;2023-05-13T09:12:11;101246.22;;;18.93;76.22
52625;BME280;38519;52.540;13.410;2023-05-13T09:14:57;101244.91;;;19.03;75.96
52625;BME280;38519;52.540;13.410;2023-05-13T09:17:22;101243.78;;;18.98;76.10
52625;BME280;38519;52.540;13.410;2023-05-13T09:19:47;101238.00;;;19.06;76.22
52625;BME280;38519;52.540;13.410;2023-05-13T09:22:16;101237.03;;;19.24;75.59
52625;BME280;38519;52.540;13.410;2023-05-13T09:24:52;101234.41;;;19.24;75.72
52625;BME280;38519;52.540;13.410;2023-05-13T09:27:22;101223.81;;;19.24;75.35
52625;BME280;38519;52.540;13.410;2023-05-13T09:29:47;101222.28;;;19.29;75.48
52625;BME280;38519;52.540;13.410;2023-05-13T09:32:22;101223.19;;;19.29;75.42
52625;BME280;38519;52.540;13.410;2023-05-13T09:34:47;101230.84;;;19.43;74.99
52625;BME280;38519;52.540;13.410;2023-05-13T09:37:16;101221.34;;;19.48;74.93
52625;BME280;38519;52.540;13.410;2023-05-13T09:39:45;101228.97;;;19.60;74.67
52625;BME280;38519;52.540;13.410;2023-05-13T09:42:16;101229.28;;;19.68;74.52
52625;BME280;38519;52.540;13.410;2023-05-13T09:44:41;101235.50;;;19.68;73.78
52625;BME280;38519;52.540;13.410;2023-05-13T09:47:10;101221.16;;;19.82;73.60
52625;BME280;38519;52.540;13.410;2023-05-13T09:49:35;101221.59;;;19.93;73.45
52625;BME280;38519;52.540;13.410;2023-05-13T09:52:01;101214.63;;;20.16;72.76
52625;BME280;38519;52.540;13.410;2023-05-13T09:54:32;101214.91;;;20.23;72.98
52625;BME280;38519;52.540;13.410;2023-05-13T09:56:58;101210.41;;;20.43;72.56
52625;BME280;38519;52.540;13.410;2023-05-13T09:59:25;101211.63;;;20.30;71.54
52625;BME280;38519;52.540;13.410;2023-05-13T10:01:50;101208.47;;;20.17;71.61
52625;BME280;38519;52.540;13.410;2023-05-13T10:04:17;101207.03;;;20.05;72.09
52625;BME280;38519;52.540;13.410;2023-05-13T10:06:43;101210.88;;;20.32;70.98
52625;BME280;38519;52.540;13.410;2023-05-13T10:09:09;101211.91;;;20.36;71.12
52625;BME280;38519;52.540;13.410;2023-05-13T10:11:35;101211.19;;;20.40;70.89
52625;BME280;38519;52.540;13.410;2023-05-13T10:14:01;101206.81;;;20.63;70.32
52625;BME280;38519;52.540;13.410;2023-05-13T10:16:31;101210.09;;;20.79;70.76
52625;BME280;38519;52.540;13.410;2023-05-13T10:18:57;101219.13;;;21.06;69.84
52625;BME280;38519;52.540;13.410;2023-05-13T10:21:25;101222.03;;;21.13;70.13
52625;BME280;38519;52.540;13.410;2023-05-13T10:23:51;101218.78;;;20.97;70.04
52625;BME280;38519;52.540;13.410;2023-05-13T10:26:16;101214.31;;;20.73;70.36
52625;BME280;38519;52.540;13.410;2023-05-13T10:28:42;101212.78;;;20.80;70.18
52625;BME280;38519;52.540;13.410;2023-05-13T10:31:09;101211.75;;;20.99;70.24
52625;BME280;38519;52.540;13.410;2023-05-13T10:33:34;101209.06;;;21.22;70.45
52625;BME280;38519;52.540;13.410;2023-05-13T10:43:28;101207.81;;;21.12;70.25
52625;BME280;38519;52.540;13.410;2023-05-13T10:45:58;101210.75;;;20.96;70.50
52625;BME280;38519;52.540;13.410;2023-05-13T10:48:24;101212.19;;;21.10;70.25
52625;BME280;38519;52.540;13.410;2023-05-13T10:50:53;101204.41;;;20.92;69.98
52625;BME280;38519;52.540;13.410;2023-05-13T10:53:26;101199.75;;;21.33;69.96
52625;BME280;38519;52.540;13.410;2023-05-13T10:55:53;101199.00;;;21.13;69.68
52625;BME280;38519;52.540;13.410;2023-05-13T10:58:19;101205.47;;;21.20;69.23
52625;BME280;38519;52.540;13.410;2023-05-13T11:00:46;101219.28;;;20.87;69.06
52625;BME280;38519;52.540;13.410;2023-05-13T11:05:43;101206.31;;;20.96;69.25
52625;BME280;38519;52.540;13.410;2023-05-13T11:08:09;101208.63;;;21.34;68.53
52625;BME280;38519;52.540;13.410;2023-05-13T11:10:35;101206.09;;;21.37;68.23
52625;BME280;38519;52.540;13.410;2023-05-13T11:15:45;101204.75;;;21.72;68.35
52625;BME280;38519;52.540;13.410;2023-05-13T11:18:12;101226.22;;;21.07;69.07
52625;BME280;38519;52.540;13.410;2023-05-13T11:20:38;101215.94;;;20.92;69.64
52625;BME280;38519;52.540;13.410;2023-05-13T11:23:03;101209.41;;;21.31;68.78
52625;BME280;38519;52.540;13.410;2023-05-13T11:25:28;101202.97;;;21.00;69.29
52625;BME280;38519;52.540;13.410;2023-05-13T11:27:54;101203.19;;;21.53;68.72
52625;BME280;38519;52.540;13.410;2023-05-13T11:30:20;101196.69;;;21.46;68.02
52625;BME280;38519;52.540;13.410;2023-05-13T11:32:55;101197.94;;;21.32;68.62
52625;BME280;38519;52.540;13.410;2023-05-13T11:35:25;101198.06;;;21.35;68.92
52625;BME280;38519;52.540;13.410;2023-05-13T11:37:51;101199.75;;;21.33;68.89
52625;BME280;38519;52.540;13.410;2023-05-13T11:42:51;101202.47;;;21.59;68.88
52625;BME280;38519;52.540;13.410;2023-05-13T11:45:16;101179.25;;;21.53;69.61
52625;BME280;38519;52.540;13.410;2023-05-13T11:47:42;101181.13;;;22.07;68.49
52625;BME280;38519;52.540;13.410;2023-05-13T11:50:18;101193.13;;;22.22;67.93
52625;BME280;38519;52.540;13.410;2023-05-13T11:52:50;101187.22;;;22.30;68.53
52625;BME280;38519;52.540;13.410;2023-05-13T11:57:54;101184.09;;;21.65;69.24
52625;BME280;38519;52.540;13.410;2023-05-13T12:03:12;101174.38;;;21.91;68.97
52625;BME280;38519;52.540;13.410;2023-05-13T12:05:39;101174.91;;;21.81;68.92
52625;BME280;38519;52.540;13.410;2023-05-13T12:08:07;101178.59;;;21.85;68.89
52625;BME280;38519;52.540;13.410;2023-05-13T12:10:41;101170.66;;;22.13;68.62
52625;BME280;38519;52.540;13.410;2023-05-13T12:13:06;101185.44;;;22.31;68.32
52625;BME280;38519;52.540;13.410;2023-05-13T12:15:32;101176.72;;;21.82;68.31
52625;BME280;38519;52.540;13.410;2023-05-13T12:17:57;101173.88;;;22.03;68.37
52625;BME280;38519;52.540;13.410;2023-05-13T12:20:23;101161.56;;;21.54;69.13
52625;BME280;38519;52.540;13.410;2023-05-13T12:22:50;101171.56;;;21.61;68.55
52625;BME280;38519;52.540;13.410;2023-05-13T12:28:10;101175.94;;;22.12;67.97
52625;BME280;38519;52.540;13.410;2023-05-13T12:30:40;101180.22;;;22.34;67.96
52625;BME280;38519;52.540;13.410;2023-05-13T12:33:15;101179.78;;;23.06;67.50
52625;BME280;38519;52.540;13.410;2023-05-13T12:35:40;101178.69;;;22.69;69.91
52625;BME280;38519;52.540;13.410;2023-05-13T12:38:06;101174.97;;;23.87;65.84
52625;BME280;38519;52.540;13.410;2023-05-13T12:40:31;101176.75;;;23.88;65.91
52625;BME280;38519;52.540;13.410;2023-05-13T12:42:57;101173.50;;;23.67;67.92
52625;BME280;38519;52.540;13.410;2023-05-13T12:45:27;101173.59;;;24.41;66.91
52625;BME280;38519;52.540;13.410;2023-05-13T12:47:53;101170.56;;;24.24;65.95
52625;BME280;38519;52.540;13.410;2023-05-13T12:50:19;101179.19;;;25.31;64.84
52625;BME280;38519;52.540;13.410;2023-05-13T12:52:44;101165.69;;;24.44;65.97
52625;BME280;38519;52.540;13.410;2023-05-13T12:55:10;101169.34;;;24.49;65.94
52625;BME280;38519;52.540;13.410;2023-05-13T12:57:37;101168.00;;;23.60;66.69